Maldives Meteorological Service

TAFS

Station TAF
VRMM
VRMM 212300Z 2200/2306 24008KT 9999 FEW018 TEMPO 2200/2206 FEW018CB=
VRMH
VRMH 212300Z 2200/2224 23006KT 9999 SCT018 TEMPO 2200/2206 6000 –TSRA SCT018 FEW019CB=
VRMK
VRMK 212300Z 2200/2224 24006KT 9999 SCT017TCU TEMPO 2200/2206 3000 SHRA SCT016 FEW017CB=
VRMT
VRMT 212300Z 2200/2224 25007KT 9999 SCT017TCU TEMPO 2201/2207 3000 SHRA SCT016 FEW017CB=
VRMG
VRMG 212300Z 2200/2306 26010KT 9999 SCT017 TEMPO 2202/2208 4000 SHRA SCT016 FEW017CB=